Time;durP1;ratioP1;P1;durP2;ratioP2;P2;SDS_P1;SDS_P2;PMS_P1;PMS_P2;Temp;Humidity;BMP_temperature;BMP_pressure;BME280_temperature;BME280_humidity;BME280_pressure;Samples;Min_cycle;Max_cycle;Signal;HPM_P1;HPM_P2
2022/04/30 00:00:36;;;;;;;7.13;3.03;;;;;;;;;;5082772;28;20013;-50
2022/04/30 00:03:02;;;;;;;6.45;3.17;;;;;;;;;;5071397;28;20036;-51
2022/04/30 00:05:30;;;;;;;5.68;3.30;;;;;;;;;;5072399;28;20021;-50
2022/04/30 00:07:57;;;;;;;6.70;2.90;;;;;;;;;;5064351;28;20032;-50
2022/04/30 00:10:23;;;;;;;4.82;3.10;;;;;;;;;;5091110;28;20032;-51
2022/04/30 00:12:49;;;;;;;5.45;3.40;;;;;;;;;;5089274;28;20024;-51
2022/04/30 00:15:15;;;;;;;5.85;3.45;;;;;;;;;;5086672;28;20088;-51
2022/04/30 00:17:41;;;;;;;8.13;3.22;;;;;;;;;;5067265;28;20027;-52
2022/04/30 00:20:08;;;;;;;5.40;3.00;;;;;;;;;;5068651;28;20033;-51
2022/04/30 00:22:34;;;;;;;3.40;2.55;;;;;;;;;;5074370;28;20514;-50
2022/04/30 00:25:00;;;;;;;7.43;3.55;;;;;;;;;;5070869;28;20028;-51
2022/04/30 00:27:26;;;;;;;8.05;4.18;;;;;;;;;;5070679;28;20032;-49
2022/04/30 00:29:53;;;;;;;6.50;3.30;;;;;;;;;;5086067;28;20396;-50
2022/04/30 00:32:19;;;;;;;6.63;3.42;;;;;;;;;;5069500;28;20028;-53
2022/04/30 00:34:45;;;;;;;9.98;3.78;;;;;;;;;;5073939;28;20024;-52
2022/04/30 00:37:11;;;;;;;5.03;4.10;;;;;;;;;;5077883;28;20020;-51
2022/04/30 00:39:37;;;;;;;5.65;3.70;;;;;;;;;;5077820;28;20025;-51
2022/04/30 00:42:04;;;;;;;5.40;3.45;;;;;;;;;;5077300;28;20373;-51
2022/04/30 00:44:30;;;;;;;8.48;4.10;;;;;;;;;;5059631;28;20033;-51
2022/04/30 00:46:56;;;;;;;9.52;3.80;;;;;;;;;;5086829;28;20173;-50
2022/04/30 00:49:22;;;;;;;6.15;3.55;;;;;;;;;;5087449;28;20444;-51
2022/04/30 00:51:49;;;;;;;9.13;3.60;;;;;;;;;;5064065;28;20060;-53
2022/04/30 00:54:18;;;;;;;3.95;3.05;;;;;;;;;;5064803;28;20025;-50
2022/04/30 00:56:51;;;;;;;6.10;3.30;;;;;;;;;;5086089;28;20038;-51
2022/04/30 00:59:18;;;;;;;8.25;3.63;;;;;;;;;;5090410;28;20447;-51
2022/04/30 01:01:45;;;;;;;6.45;3.25;;;;;;;;;;5063662;28;20102;-49
2022/04/30 01:04:11;;;;;;;8.80;4.20;;;;;;;;;;5080833;28;20036;-51
2022/04/30 01:06:58;;;;;;;6.55;3.40;;;;;;;;;;5085794;28;20694;-50
2022/04/30 01:09:25;;;;;;;5.10;3.45;;;;;;;;;;5083595;28;20031;-49
2022/04/30 01:11:55;;;;;;;6.13;3.38;;;;;;;;;;5066189;28;20031;-49
2022/04/30 01:14:21;;;;;;;7.80;3.35;;;;;;;;;;5084961;28;20108;-50
2022/04/30 01:16:47;;;;;;;6.55;3.28;;;;;;;;;;5063378;28;20052;-50
2022/04/30 01:19:20;;;;;;;7.97;3.40;;;;;;;;;;5075772;28;20042;-48
2022/04/30 01:21:54;;;;;;;6.68;3.22;;;;;;;;;;5069940;28;20036;-48
2022/04/30 01:24:22;;;;;;;7.97;3.65;;;;;;;;;;5088154;28;20395;-49
2022/04/30 01:26:51;;;;;;;5.45;3.33;;;;;;;;;;5082303;28;20503;-46
2022/04/30 01:29:18;;;;;;;5.93;3.30;;;;;;;;;;5069322;28;20032;-48
2022/04/30 01:37:36;;;;;;;6.28;3.17;;;;;;;;;;5068987;28;20039;-51
2022/04/30 01:40:13;;;;;;;4.38;3.25;;;;;;;;;;5079656;28;20506;-50
2022/04/30 01:42:41;;;;;;;7.55;3.28;;;;;;;;;;5066910;28;20052;-50
2022/04/30 01:45:08;;;;;;;11.50;3.20;;;;;;;;;;5073380;28;20102;-48
2022/04/30 01:47:36;;;;;;;5.43;2.85;;;;;;;;;;5071536;28;20060;-48
2022/04/30 01:50:02;;;;;;;5.50;3.10;;;;;;;;;;5080042;28;20025;-50
2022/04/30 01:52:29;;;;;;;6.72;3.35;;;;;;;;;;5075579;28;20415;-49
2022/04/30 01:54:55;;;;;;;6.63;3.47;;;;;;;;;;5074184;28;20029;-46
2022/04/30 01:57:26;;;;;;;5.47;3.20;;;;;;;;;;5070278;28;20063;-50
2022/04/30 01:59:55;;;;;;;6.32;3.33;;;;;;;;;;5080558;28;20408;-50
2022/04/30 02:02:23;;;;;;;8.27;3.88;;;;;;;;;;5063798;28;20056;-47
2022/04/30 02:04:50;;;;;;;5.07;2.97;;;;;;;;;;5081128;28;20035;-52
2022/04/30 02:07:16;;;;;;;5.35;2.95;;;;;;;;;;5085129;28;20035;-48
2022/04/30 02:09:42;;;;;;;6.78;3.15;;;;;;;;;;5079897;28;20025;-45
2022/04/30 02:12:08;;;;;;;5.82;2.83;;;;;;;;;;5064721;28;20117;-46
2022/04/30 02:14:35;;;;;;;6.65;3.63;;;;;;;;;;5084981;28;20084;-50
2022/04/30 02:17:01;;;;;;;7.13;3.58;;;;;;;;;;5069588;28;20059;-49
2022/04/30 02:19:28;;;;;;;5.97;3.40;;;;;;;;;;5072670;28;20063;-51
2022/04/30 02:21:59;;;;;;;8.48;3.63;;;;;;;;;;5076761;28;20028;-47
2022/04/30 02:24:27;;;;;;;4.85;3.33;;;;;;;;;;5091809;28;20035;-50
2022/04/30 02:26:53;;;;;;;6.32;3.70;;;;;;;;;;5077413;28;20031;-50
2022/04/30 02:29:20;;;;;;;9.02;3.25;;;;;;;;;;5083516;28;20032;-49
2022/04/30 02:31:47;;;;;;;6.45;3.58;;;;;;;;;;5065360;28;20480;-47
2022/04/30 02:34:13;;;;;;;4.97;3.38;;;;;;;;;;5077206;28;20032;-51
2022/04/30 02:36:39;;;;;;;6.97;3.13;;;;;;;;;;5072644;28;20484;-53
2022/04/30 02:39:05;;;;;;;7.03;3.13;;;;;;;;;;5093706;28;20024;-52
2022/04/30 02:41:31;;;;;;;5.07;3.17;;;;;;;;;;5078556;28;20050;-51
2022/04/30 02:43:59;;;;;;;4.60;2.70;;;;;;;;;;5059837;28;20035;-52
2022/04/30 02:46:25;;;;;;;5.90;2.78;;;;;;;;;;5076132;28;20033;-50
2022/04/30 02:48:50;;;;;;;7.70;3.22;;;;;;;;;;5083374;28;20392;-52
2022/04/30 02:51:16;;;;;;;5.88;3.03;;;;;;;;;;5070298;28;20045;-49
2022/04/30 02:53:43;;;;;;;3.85;2.80;;;;;;;;;;5073605;28;20623;-49
2022/04/30 02:56:12;;;;;;;5.07;3.15;;;;;;;;;;5064819;28;20029;-49
2022/04/30 03:01:23;;;;;;;6.60;3.28;;;;;;;;;;5080935;28;20478;-47
2022/04/30 03:03:50;;;;;;;5.93;3.42;;;;;;;;;;5060878;28;20063;-48
2022/04/30 03:06:17;;;;;;;7.38;3.03;;;;;;;;;;5075544;28;20024;-49
2022/04/30 03:08:47;;;;;;;5.63;3.10;;;;;;;;;;5078752;28;20032;-49
2022/04/30 03:11:13;;;;;;;7.05;3.30;;;;;;;;;;5070620;28;20031;-47
2022/04/30 03:13:39;;;;;;;6.68;2.83;;;;;;;;;;5071588;28;20029;-49
2022/04/30 03:21:44;;;;;;;8.38;2.92;;;;;;;;;;5077476;28;20511;-50
2022/04/30 03:24:10;;;;;;;8.35;3.10;;;;;;;;;;5083278;28;20064;-50
2022/04/30 03:26:36;;;;;;;6.57;3.30;;;;;;;;;;5078558;28;20090;-48
2022/04/30 03:29:03;;;;;;;11.77;3.75;;;;;;;;;;5080870;28;20036;-48
2022/04/30 03:31:32;;;;;;;5.68;2.80;;;;;;;;;;5069000;28;20086;-50
2022/04/30 03:33:58;;;;;;;5.07;2.90;;;;;;;;;;5062961;28;20484;-49
2022/04/30 03:36:24;;;;;;;3.70;2.65;;;;;;;;;;5072479;28;20043;-48
2022/04/30 03:38:50;;;;;;;5.40;2.78;;;;;;;;;;5076066;28;20464;-49
2022/04/30 03:41:16;;;;;;;5.38;2.55;;;;;;;;;;5069941;28;20441;-50
2022/04/30 03:43:42;;;;;;;8.73;2.70;;;;;;;;;;5064194;28;20063;-51
2022/04/30 03:46:08;;;;;;;7.50;2.95;;;;;;;;;;5081196;28;20040;-53
2022/04/30 03:48:34;;;;;;;7.68;3.00;;;;;;;;;;5089028;28;20043;-49
2022/04/30 03:51:00;;;;;;;3.63;2.30;;;;;;;;;;5065378;28;20036;-49
2022/04/30 03:53:26;;;;;;;5.38;2.75;;;;;;;;;;5075114;28;20089;-49
2022/04/30 03:55:53;;;;;;;4.65;2.75;;;;;;;;;;5067890;28;20123;-51
2022/04/30 03:58:19;;;;;;;4.00;2.55;;;;;;;;;;5082353;28;20036;-52
2022/04/30 04:00:48;;;;;;;6.45;2.38;;;;;;;;;;5067342;28;20041;-48
2022/04/30 04:03:14;;;;;;;4.55;2.78;;;;;;;;;;5068685;28;20032;-47
2022/04/30 04:05:40;;;;;;;8.48;3.10;;;;;;;;;;5075709;28;20029;-49
2022/04/30 04:08:11;;;;;;;4.82;2.53;;;;;;;;;;5080312;28;20040;-47
2022/04/30 04:10:37;;;;;;;5.80;2.95;;;;;;;;;;5063338;28;20485;-47
2022/04/30 04:18:33;;;;;;;4.70;2.55;;;;;;;;;;5064163;28;20090;-48
2022/04/30 04:20:59;;;;;;;9.40;2.72;;;;;;;;;;5060337;28;20020;-46
2022/04/30 04:23:25;;;;;;;7.07;2.50;;;;;;;;;;5069185;28;20029;-46
2022/04/30 04:26:00;;;;;;;8.23;2.95;;;;;;;;;;5083102;28;20534;-48
2022/04/30 04:28:29;;;;;;;5.78;2.78;;;;;;;;;;5067950;28;20020;-49
2022/04/30 04:30:58;;;;;;;5.40;2.50;;;;;;;;;;5061360;28;20089;-48
2022/04/30 04:33:25;;;;;;;10.15;2.70;;;;;;;;;;5069847;28;20082;-51
2022/04/30 04:35:50;;;;;;;5.63;2.88;;;;;;;;;;5065641;28;20547;-49
2022/04/30 04:38:16;;;;;;;4.65;3.00;;;;;;;;;;5070215;28;20033;-46
2022/04/30 04:40:42;;;;;;;7.88;3.25;;;;;;;;;;5081580;28;20380;-48
2022/04/30 04:43:08;;;;;;;6.75;3.15;;;;;;;;;;5067149;28;20033;-47
2022/04/30 04:45:34;;;;;;;7.75;3.17;;;;;;;;;;5072418;28;20038;-46
2022/04/30 04:48:01;;;;;;;6.72;2.83;;;;;;;;;;5078521;28;20473;-46
2022/04/30 04:50:27;;;;;;;6.15;3.13;;;;;;;;;;5085841;28;20028;-52
2022/04/30 04:52:54;;;;;;;6.20;3.03;;;;;;;;;;5058121;28;20048;-52
2022/04/30 04:55:20;;;;;;;5.97;2.70;;;;;;;;;;5078293;28;20157;-47
2022/04/30 04:57:46;;;;;;;5.57;3.15;;;;;;;;;;5068391;28;20034;-48
2022/04/30 05:00:12;;;;;;;8.35;3.50;;;;;;;;;;5062997;28;20032;-51
2022/04/30 05:02:38;;;;;;;3.92;2.90;;;;;;;;;;5057510;28;20404;-51
2022/04/30 05:05:04;;;;;;;4.88;2.67;;;;;;;;;;5065963;28;20058;-50
2022/04/30 05:07:30;;;;;;;3.60;2.65;;;;;;;;;;5060886;28;20029;-46
2022/04/30 05:09:56;;;;;;;9.60;3.22;;;;;;;;;;5080956;28;20651;-49
2022/04/30 05:12:22;;;;;;;6.07;2.53;;;;;;;;;;5055171;28;20028;-48
2022/04/30 05:14:48;;;;;;;16.08;2.70;;;;;;;;;;5051050;28;20133;-51
2022/04/30 05:17:14;;;;;;;7.10;2.75;;;;;;;;;;5063445;28;20268;-48
2022/04/30 05:19:40;;;;;;;7.35;2.67;;;;;;;;;;5071965;28;20483;-49
2022/04/30 05:22:07;;;;;;;6.18;2.20;;;;;;;;;;5060816;28;20031;-48
2022/04/30 05:24:33;;;;;;;4.40;2.40;;;;;;;;;;5078955;28;20024;-49
2022/04/30 05:26:59;;;;;;;4.60;2.83;;;;;;;;;;5058749;28;20411;-49
2022/04/30 05:29:25;;;;;;;8.70;2.30;;;;;;;;;;5061311;28;20032;-48
2022/04/30 05:31:51;;;;;;;7.53;2.50;;;;;;;;;;5062381;28;20110;-47
2022/04/30 05:34:17;;;;;;;4.18;2.38;;;;;;;;;;5065375;28;20476;-48
2022/04/30 05:36:43;;;;;;;5.55;2.28;;;;;;;;;;5063199;28;20388;-49
2022/04/30 05:39:09;;;;;;;6.50;2.10;;;;;;;;;;5057901;28;20038;-50
2022/04/30 05:41:35;;;;;;;3.85;2.00;;;;;;;;;;5063180;28;20103;-50
2022/04/30 05:44:01;;;;;;;6.05;2.20;;;;;;;;;;5062127;28;20323;-50
2022/04/30 05:46:27;;;;;;;7.15;2.03;;;;;;;;;;5063166;28;20029;-48
2022/04/30 05:48:52;;;;;;;5.60;1.83;;;;;;;;;;5071529;28;20035;-49
2022/04/30 05:51:20;;;;;;;5.40;1.77;;;;;;;;;;5062337;28;20041;-48
2022/04/30 05:53:46;;;;;;;4.28;1.52;;;;;;;;;;5066849;28;20021;-48
2022/04/30 05:56:12;;;;;;;4.07;2.00;;;;;;;;;;5067796;28;20040;-47
2022/04/30 05:58:38;;;;;;;4.25;1.80;;;;;;;;;;5068068;28;20029;-48
2022/04/30 06:01:03;;;;;;;2.65;1.73;;;;;;;;;;5064189;28;20028;-51
2022/04/30 06:03:31;;;;;;;2.92;1.83;;;;;;;;;;5061237;28;20028;-50
2022/04/30 06:05:57;;;;;;;4.97;1.65;;;;;;;;;;5057028;28;20025;-47
2022/04/30 06:08:23;;;;;;;4.68;1.90;;;;;;;;;;5062132;28;20146;-51
2022/04/30 06:10:49;;;;;;;3.80;1.80;;;;;;;;;;5062691;28;20029;-46
2022/04/30 06:13:15;;;;;;;7.15;2.05;;;;;;;;;;5070579;28;20104;-49
2022/04/30 06:15:41;;;;;;;5.22;1.80;;;;;;;;;;5066007;28;20103;-51
2022/04/30 06:18:08;;;;;;;6.35;1.80;;;;;;;;;;5063679;28;20112;-46
2022/04/30 06:20:34;;;;;;;6.43;2.42;;;;;;;;;;5075022;28;20024;-49
2022/04/30 06:23:00;;;;;;;3.47;2.15;;;;;;;;;;5079749;28;20081;-47
2022/04/30 06:25:26;;;;;;;4.70;2.03;;;;;;;;;;5067604;28;20526;-51
2022/04/30 06:27:52;;;;;;;4.47;2.10;;;;;;;;;;5077709;28;20062;-52
2022/04/30 06:30:18;;;;;;;5.10;1.88;;;;;;;;;;5070689;28;20043;-48
2022/04/30 06:32:44;;;;;;;3.83;1.92;;;;;;;;;;5070482;28;20033;-48
2022/04/30 06:35:10;;;;;;;4.30;2.15;;;;;;;;;;5065202;28;20032;-48
2022/04/30 06:37:36;;;;;;;5.97;2.03;;;;;;;;;;5075020;28;20021;-50
2022/04/30 06:40:04;;;;;;;5.15;2.08;;;;;;;;;;5063538;28;20464;-48
2022/04/30 06:42:39;;;;;;;4.53;1.80;;;;;;;;;;5072400;28;20029;-52
2022/04/30 06:45:05;;;;;;;4.65;1.83;;;;;;;;;;5079722;28;20386;-52
2022/04/30 06:47:31;;;;;;;7.40;1.85;;;;;;;;;;5061939;28;20028;-51
2022/04/30 06:49:57;;;;;;;4.88;2.05;;;;;;;;;;5065808;28;20028;-49
2022/04/30 06:52:23;;;;;;;5.80;1.77;;;;;;;;;;5068402;28;20044;-51
2022/04/30 06:57:34;;;;;;;3.05;2.08;;;;;;;;;;5070070;28;20071;-47
2022/04/30 07:00:39;;;;;;;7.28;1.98;;;;;;;;;;5072451;28;20051;-48
2022/04/30 07:02:46;;;;;;;7.18;2.30;;;;;;;;;;5060777;28;20029;-51
2022/04/30 07:05:12;;;;;;;5.13;2.20;;;;;;;;;;5071302;28;20479;-46
2022/04/30 07:07:38;;;;;;;4.00;2.10;;;;;;;;;;5074825;28;20035;-47
2022/04/30 07:10:04;;;;;;;3.08;2.10;;;;;;;;;;5063121;28;20028;-48
2022/04/30 07:12:30;;;;;;;7.63;2.22;;;;;;;;;;5077684;28;20031;-50
2022/04/30 07:14:56;;;;;;;6.57;2.15;;;;;;;;;;5087855;28;20579;-48
2022/04/30 07:17:22;;;;;;;5.72;2.10;;;;;;;;;;5072693;28;20461;-46
2022/04/30 07:19:48;;;;;;;4.72;2.10;;;;;;;;;;5055446;28;20373;-47
2022/04/30 07:22:14;;;;;;;9.80;2.78;;;;;;;;;;5063283;28;20021;-52
2022/04/30 07:24:40;;;;;;;4.75;1.90;;;;;;;;;;5085065;28;20044;-50
2022/04/30 07:27:07;;;;;;;3.95;1.92;;;;;;;;;;5080434;28;20509;-51
2022/04/30 07:29:33;;;;;;;4.85;1.88;;;;;;;;;;5069539;28;20488;-50
2022/04/30 07:32:00;;;;;;;17.08;2.83;;;;;;;;;;5055564;28;20044;-49
2022/04/30 07:34:27;;;;;;;8.88;2.58;;;;;;;;;;5074516;28;20033;-49
2022/04/30 07:36:53;;;;;;;5.80;2.45;;;;;;;;;;5064583;28;20035;-51
2022/04/30 07:39:19;;;;;;;4.20;1.80;;;;;;;;;;5080597;28;20411;-49
2022/04/30 07:41:45;;;;;;;9.15;3.08;;;;;;;;;;5075481;28;20029;-48
2022/04/30 07:44:11;;;;;;;4.60;2.00;;;;;;;;;;5067631;28;20032;-47
2022/04/30 07:46:37;;;;;;;6.30;1.95;;;;;;;;;;5083056;28;20024;-46
2022/04/30 07:49:03;;;;;;;5.82;2.58;;;;;;;;;;5072123;28;20028;-48
2022/04/30 07:51:42;;;;;;;3.90;2.10;;;;;;;;;;5079684;28;20100;-49
2022/04/30 07:54:08;;;;;;;7.93;2.15;;;;;;;;;;5056370;28;20025;-47
2022/04/30 07:56:34;;;;;;;3.80;2.28;;;;;;;;;;5062028;28;20047;-48
2022/04/30 07:59:00;;;;;;;6.03;2.42;;;;;;;;;;5069779;28;20537;-46
2022/04/30 08:01:26;;;;;;;10.10;1.92;;;;;;;;;;5070487;28;20078;-47
2022/04/30 08:03:52;;;;;;;5.95;2.30;;;;;;;;;;5063849;28;20052;-47
2022/04/30 08:06:18;;;;;;;4.57;2.20;;;;;;;;;;5060188;28;20033;-48
2022/04/30 08:08:44;;;;;;;5.68;2.10;;;;;;;;;;5079002;28;20035;-50
2022/04/30 08:11:10;;;;;;;8.90;2.67;;;;;;;;;;5058208;28;20025;-51
2022/04/30 08:13:36;;;;;;;7.68;2.80;;;;;;;;;;5059694;28;20035;-50
2022/04/30 08:16:02;;;;;;;3.53;1.55;;;;;;;;;;5064684;28;20043;-49
2022/04/30 08:18:28;;;;;;;5.53;2.22;;;;;;;;;;5051885;28;20064;-47
2022/04/30 08:20:54;;;;;;;4.38;2.30;;;;;;;;;;5059761;28;20044;-48
2022/04/30 08:23:22;;;;;;;6.80;2.20;;;;;;;;;;5071820;28;20472;-51
2022/04/30 08:25:48;;;;;;;5.10;2.67;;;;;;;;;;5070228;28;20118;-48
2022/04/30 08:28:14;;;;;;;6.97;2.15;;;;;;;;;;5055468;28;20476;-48
2022/04/30 08:30:41;;;;;;;6.72;2.50;;;;;;;;;;5066809;28;20491;-48
2022/04/30 08:33:07;;;;;;;7.20;2.20;;;;;;;;;;5082704;28;20462;-48
2022/04/30 08:35:33;;;;;;;4.05;1.92;;;;;;;;;;5067943;28;20063;-49
2022/04/30 08:37:59;;;;;;;6.78;2.80;;;;;;;;;;5055670;28;20068;-49
2022/04/30 08:40:25;;;;;;;4.82;2.33;;;;;;;;;;5077145;28;20032;-50
2022/04/30 08:42:51;;;;;;;5.82;2.25;;;;;;;;;;5055246;28;20032;-49
2022/04/30 08:45:17;;;;;;;4.30;2.03;;;;;;;;;;5053765;28;20384;-48
2022/04/30 08:47:47;;;;;;;5.22;2.50;;;;;;;;;;5080622;28;20027;-49
2022/04/30 08:50:14;;;;;;;5.53;2.67;;;;;;;;;;5061691;28;20493;-48
2022/04/30 08:52:41;;;;;;;5.25;2.05;;;;;;;;;;5058935;28;20575;-49
2022/04/30 08:55:07;;;;;;;3.05;1.75;;;;;;;;;;5065619;28;20029;-48
2022/04/30 08:57:34;;;;;;;6.50;2.33;;;;;;;;;;5066230;28;20031;-46
2022/04/30 09:00:00;;;;;;;4.70;2.20;;;;;;;;;;5085357;28;20024;-51
2022/04/30 09:02:26;;;;;;;4.10;2.17;;;;;;;;;;5071839;28;20028;-51
2022/04/30 09:04:52;;;;;;;3.85;2.30;;;;;;;;;;5056679;28;20036;-50
2022/04/30 09:07:22;;;;;;;6.72;2.00;;;;;;;;;;5076786;28;20024;-47
2022/04/30 09:09:55;;;;;;;5.57;2.13;;;;;;;;;;5058694;28;20033;-46
2022/04/30 09:12:21;;;;;;;8.77;1.95;;;;;;;;;;5058931;28;20449;-47
2022/04/30 09:14:47;;;;;;;3.47;2.28;;;;;;;;;;5059960;28;20025;-48
2022/04/30 09:17:14;;;;;;;3.67;2.00;;;;;;;;;;5062498;28;20028;-48
2022/04/30 09:19:47;;;;;;;5.07;2.03;;;;;;;;;;5082417;28;20028;-47
2022/04/30 09:22:15;;;;;;;4.67;2.07;;;;;;;;;;5087292;28;20033;-48
2022/04/30 09:24:48;;;;;;;4.40;1.90;;;;;;;;;;5078653;28;20027;-47
2022/04/30 09:27:14;;;;;;;8.02;1.98;;;;;;;;;;5065667;28;20071;-48
2022/04/30 09:29:40;;;;;;;8.13;2.58;;;;;;;;;;5075849;28;20054;-48
2022/04/30 09:32:07;;;;;;;3.63;1.95;;;;;;;;;;5076688;28;20032;-49
2022/04/30 09:37:41;;;;;;;5.55;2.40;;;;;;;;;;5077645;28;20044;-47
2022/04/30 09:40:17;;;;;;;4.50;2.05;;;;;;;;;;5054199;28;20028;-48
2022/04/30 09:42:43;;;;;;;4.35;2.00;;;;;;;;;;5065903;28;20047;-50
2022/04/30 09:45:21;;;;;;;5.75;1.63;;;;;;;;;;5069786;28;20038;-51
2022/04/30 09:47:47;;;;;;;7.13;2.83;;;;;;;;;;5063102;28;20047;-48
2022/04/30 09:55:47;;;;;;;2.28;1.58;;;;;;;;;;5060850;28;20047;-47
2022/04/30 09:58:16;;;;;;;17.05;2.75;;;;;;;;;;5078374;28;20027;-47
2022/04/30 10:00:42;;;;;;;7.63;2.40;;;;;;;;;;5054828;28;20113;-47
2022/04/30 10:03:08;;;;;;;6.45;2.30;;;;;;;;;;5063027;28;20008;-53
2022/04/30 10:05:36;;;;;;;4.25;1.77;;;;;;;;;;5060624;28;20032;-48
2022/04/30 10:08:02;;;;;;;11.27;2.22;;;;;;;;;;5061654;28;20635;-49
2022/04/30 10:10:40;;;;;;;6.03;2.47;;;;;;;;;;5053748;28;20166;-49
2022/04/30 10:13:10;;;;;;;3.63;1.65;;;;;;;;;;5078445;28;20535;-51
2022/04/30 10:15:39;;;;;;;4.28;2.35;;;;;;;;;;5075040;28;20029;-47
2022/04/30 10:18:08;;;;;;;3.35;1.80;;;;;;;;;;5054042;28;20029;-50
2022/04/30 10:20:34;;;;;;;6.30;2.10;;;;;;;;;;5073014;28;20025;-48
2022/04/30 10:23:00;;;;;;;6.72;1.67;;;;;;;;;;5056826;28;20033;-48
2022/04/30 10:25:36;;;;;;;6.20;2.35;;;;;;;;;;5062849;28;20032;-48
2022/04/30 10:28:05;;;;;;;4.15;2.05;;;;;;;;;;5074153;28;20107;-48
2022/04/30 10:30:34;;;;;;;3.22;1.98;;;;;;;;;;5075189;28;20456;-52
2022/04/30 10:33:01;;;;;;;3.95;1.77;;;;;;;;;;5061525;28;20035;-50
2022/04/30 10:35:30;;;;;;;6.38;2.85;;;;;;;;;;5059070;28;20032;-48
2022/04/30 10:38:06;;;;;;;7.43;1.73;;;;;;;;;;5065586;28;20481;-47
2022/04/30 10:40:50;;;;;;;5.50;2.22;;;;;;;;;;5065138;28;20024;-51
2022/04/30 10:43:17;;;;;;;5.68;1.92;;;;;;;;;;5067244;28;20020;-48
2022/04/30 10:45:43;;;;;;;4.75;1.83;;;;;;;;;;5057915;28;20028;-53
2022/04/30 10:48:09;;;;;;;5.60;2.17;;;;;;;;;;5056953;28;20407;-49
2022/04/30 10:50:35;;;;;;;3.47;2.05;;;;;;;;;;5064469;28;20047;-47
2022/04/30 10:53:02;;;;;;;3.15;1.73;;;;;;;;;;5053991;28;20076;-52
2022/04/30 10:55:28;;;;;;;6.03;1.70;;;;;;;;;;5063698;28;20021;-47
2022/04/30 10:57:54;;;;;;;8.75;2.10;;;;;;;;;;5065484;28;20426;-47
2022/04/30 11:00:23;;;;;;;7.97;2.50;;;;;;;;;;5063675;28;20029;-48
2022/04/30 11:02:50;;;;;;;3.50;1.80;;;;;;;;;;5081145;28;20086;-53
2022/04/30 11:05:23;;;;;;;3.72;1.77;;;;;;;;;;5069818;28;20086;-52
2022/04/30 11:07:49;;;;;;;4.72;1.92;;;;;;;;;;5060828;28;20018;-50
2022/04/30 11:10:15;;;;;;;9.88;2.08;;;;;;;;;;5072131;28;20028;-49
2022/04/30 11:12:41;;;;;;;5.20;1.50;;;;;;;;;;5084010;28;20020;-50
2022/04/30 11:15:08;;;;;;;4.15;2.08;;;;;;;;;;5078357;28;20092;-50
2022/04/30 11:17:44;;;;;;;3.50;1.85;;;;;;;;;;5069249;28;20025;-48
2022/04/30 11:20:10;;;;;;;4.03;2.13;;;;;;;;;;5081632;28;20016;-48
2022/04/30 11:22:36;;;;;;;2.45;1.50;;;;;;;;;;5077905;28;20031;-48
2022/04/30 11:25:02;;;;;;;6.00;2.10;;;;;;;;;;5071571;28;20020;-48
2022/04/30 11:27:31;;;;;;;5.97;2.03;;;;;;;;;;5085214;28;20020;-49
2022/04/30 11:29:57;;;;;;;3.97;2.00;;;;;;;;;;5075503;28;20072;-50
2022/04/30 11:32:26;;;;;;;2.75;1.65;;;;;;;;;;5074849;28;20107;-48
2022/04/30 11:34:54;;;;;;;5.10;1.92;;;;;;;;;;5078913;28;20090;-50
2022/04/30 11:37:20;;;;;;;7.53;2.20;;;;;;;;;;5075260;28;20028;-49
2022/04/30 11:39:46;;;;;;;3.97;1.77;;;;;;;;;;5067726;28;20039;-49
2022/04/30 11:42:12;;;;;;;3.53;1.70;;;;;;;;;;5079699;28;20029;-47
2022/04/30 11:44:38;;;;;;;3.28;2.03;;;;;;;;;;5086994;28;20035;-50
2022/04/30 11:47:06;;;;;;;4.07;1.90;;;;;;;;;;5062708;28;20489;-49
2022/04/30 11:49:32;;;;;;;5.72;1.50;;;;;;;;;;5073225;28;20024;-47
2022/04/30 11:51:59;;;;;;;3.08;1.90;;;;;;;;;;5069597;28;20412;-48
2022/04/30 11:54:25;;;;;;;3.03;1.67;;;;;;;;;;5082875;28;20035;-48
2022/04/30 11:56:52;;;;;;;4.78;1.50;;;;;;;;;;5065385;28;20473;-49
2022/04/30 11:59:31;;;;;;;3.28;1.80;;;;;;;;;;5066084;28;20016;-53
2022/04/30 12:02:04;;;;;;;4.32;1.42;;;;;;;;;;5070901;28;20028;-51
2022/04/30 12:04:34;;;;;;;3.05;1.73;;;;;;;;;;5068245;28;20020;-50
2022/04/30 12:07:01;;;;;;;3.60;1.80;;;;;;;;;;5070368;28;20036;-48
2022/04/30 12:09:31;;;;;;;4.38;1.33;;;;;;;;;;5069612;28;20031;-47
2022/04/30 12:11:58;;;;;;;7.57;2.10;;;;;;;;;;5065623;28;20480;-48
2022/04/30 12:14:24;;;;;;;2.83;1.40;;;;;;;;;;5074885;28;20031;-48
2022/04/30 12:16:51;;;;;;;2.28;1.50;;;;;;;;;;5087307;28;20024;-50
2022/04/30 12:25:14;;;;;;;1.88;1.20;;;;;;;;;;5046095;28;20037;-53
2022/04/30 12:27:41;;;;;;;3.90;1.50;;;;;;;;;;5087030;28;20149;-50
2022/04/30 12:30:09;;;;;;;2.72;1.40;;;;;;;;;;5054134;28;20033;-51
2022/04/30 12:32:46;;;;;;;3.45;1.60;;;;;;;;;;5077837;28;20217;-50
2022/04/30 12:35:14;;;;;;;3.25;1.40;;;;;;;;;;5089804;28;20035;-51
2022/04/30 12:37:40;;;;;;;5.38;2.00;;;;;;;;;;5072987;28;20040;-50
2022/04/30 12:40:06;;;;;;;3.97;1.60;;;;;;;;;;5079682;28;20032;-53
2022/04/30 12:42:32;;;;;;;3.38;1.48;;;;;;;;;;5072115;28;20033;-47
2022/04/30 12:44:58;;;;;;;2.30;1.30;;;;;;;;;;5077375;28;20112;-50
2022/04/30 12:47:24;;;;;;;3.65;1.52;;;;;;;;;;5077138;28;20028;-50
2022/04/30 12:49:50;;;;;;;2.72;1.50;;;;;;;;;;5085307;28;20396;-45
2022/04/30 12:52:16;;;;;;;2.58;1.60;;;;;;;;;;5090676;28;20071;-49
2022/04/30 12:54:42;;;;;;;3.70;1.60;;;;;;;;;;5087257;28;20039;-47
2022/04/30 12:57:10;;;;;;;3.83;1.52;;;;;;;;;;5071468;28;20439;-48
2022/04/30 12:59:37;;;;;;;5.65;2.00;;;;;;;;;;5077633;28;20042;-53
2022/04/30 13:02:03;;;;;;;4.78;2.10;;;;;;;;;;5048876;28;20031;-50
2022/04/30 13:04:29;;;;;;;5.57;1.83;;;;;;;;;;5078082;28;20809;-48
2022/04/30 13:06:55;;;;;;;4.72;1.55;;;;;;;;;;5090585;28;20055;-51
2022/04/30 13:14:51;;;;;;;3.80;1.20;;;;;;;;;;5063013;28;20042;-47
2022/04/30 13:17:17;;;;;;;4.35;1.50;;;;;;;;;;5086567;28;20029;-51
2022/04/30 13:19:44;;;;;;;3.63;1.40;;;;;;;;;;5072956;28;20031;-50
2022/04/30 13:22:10;;;;;;;3.28;1.40;;;;;;;;;;5078655;28;20032;-52
2022/04/30 13:24:36;;;;;;;6.70;1.25;;;;;;;;;;5063131;28;20538;-51
2022/04/30 13:27:02;;;;;;;2.38;1.40;;;;;;;;;;5057655;28;20024;-50
2022/04/30 13:29:28;;;;;;;2.42;1.10;;;;;;;;;;5079908;28;20091;-51
2022/04/30 13:31:54;;;;;;;4.68;1.20;;;;;;;;;;5073882;28;20392;-49
2022/04/30 13:34:21;;;;;;;4.18;1.52;;;;;;;;;;5077301;28;20362;-50
2022/04/30 13:36:48;;;;;;;5.93;1.27;;;;;;;;;;5093810;28;20391;-50
2022/04/30 13:39:14;;;;;;;4.72;1.73;;;;;;;;;;5079045;28;20104;-47
2022/04/30 13:41:40;;;;;;;2.60;1.48;;;;;;;;;;5082741;28;20108;-49
2022/04/30 13:44:09;;;;;;;2.83;1.20;;;;;;;;;;5087018;28;20040;-47
2022/04/30 13:46:35;;;;;;;3.05;1.02;;;;;;;;;;5094402;28;20073;-49
2022/04/30 13:49:01;;;;;;;3.17;1.10;;;;;;;;;;5082888;28;20035;-47
2022/04/30 13:51:27;;;;;;;5.57;1.80;;;;;;;;;;5066598;28;20454;-49
2022/04/30 13:53:53;;;;;;;2.85;1.10;;;;;;;;;;5061941;28;20754;-52
2022/04/30 13:56:19;;;;;;;7.00;1.30;;;;;;;;;;5066536;28;20032;-46
2022/04/30 13:58:45;;;;;;;2.10;1.30;;;;;;;;;;5091926;28;20472;-51
2022/04/30 14:01:12;;;;;;;2.67;1.20;;;;;;;;;;5078455;28;20032;-48
2022/04/30 14:03:38;;;;;;;2.08;1.02;;;;;;;;;;5078397;28;20017;-50
2022/04/30 14:06:04;;;;;;;0.98;0.60;;;;;;;;;;5077367;28;20039;-51
2022/04/30 14:08:30;;;;;;;5.22;1.58;;;;;;;;;;5068917;28;20029;-49
2022/04/30 14:10:56;;;;;;;3.17;0.98;;;;;;;;;;5081236;28;20412;-50
2022/04/30 14:16:06;;;;;;;3.33;1.00;;;;;;;;;;5068317;28;20710;-48
2022/04/30 14:18:34;;;;;;;2.67;1.00;;;;;;;;;;5080108;28;20024;-48
2022/04/30 14:21:03;;;;;;;3.97;1.10;;;;;;;;;;5092896;28;20028;-50
2022/04/30 14:23:30;;;;;;;4.13;0.95;;;;;;;;;;5077308;28;20025;-49
2022/04/30 14:25:56;;;;;;;2.72;1.08;;;;;;;;;;5060232;28;20048;-46
2022/04/30 14:28:23;;;;;;;2.00;0.98;;;;;;;;;;5071692;28;20036;-47
2022/04/30 14:30:49;;;;;;;2.55;1.02;;;;;;;;;;5069810;28;20036;-49
2022/04/30 14:33:15;;;;;;;1.83;0.80;;;;;;;;;;5069850;28;20652;-48
2022/04/30 14:35:41;;;;;;;2.50;1.10;;;;;;;;;;5068568;28;20032;-52
2022/04/30 14:38:08;;;;;;;2.63;1.05;;;;;;;;;;5089710;28;20032;-48
2022/04/30 14:40:39;;;;;;;1.45;0.88;;;;;;;;;;5081785;28;20036;-47
2022/04/30 14:43:06;;;;;;;2.42;0.90;;;;;;;;;;5071966;28;20025;-50
2022/04/30 14:45:32;;;;;;;2.63;1.00;;;;;;;;;;5074847;28;20103;-47
2022/04/30 14:47:58;;;;;;;3.13;0.93;;;;;;;;;;5093053;28;20100;-53
2022/04/30 14:50:24;;;;;;;2.13;0.95;;;;;;;;;;5092212;28;20529;-50
2022/04/30 14:52:50;;;;;;;2.53;1.27;;;;;;;;;;5077018;28;20052;-53
2022/04/30 14:55:16;;;;;;;2.67;1.15;;;;;;;;;;5069294;28;20028;-47
2022/04/30 14:57:43;;;;;;;4.28;1.30;;;;;;;;;;5090454;28;20702;-49
2022/04/30 15:00:09;;;;;;;1.58;0.85;;;;;;;;;;5066760;28;20039;-50
2022/04/30 15:02:35;;;;;;;3.45;1.13;;;;;;;;;;5093012;28;20052;-49
2022/04/30 15:05:01;;;;;;;2.33;1.10;;;;;;;;;;5075630;28;20114;-50
2022/04/30 15:07:27;;;;;;;4.05;1.42;;;;;;;;;;5067436;28;20489;-51
2022/04/30 15:09:53;;;;;;;4.22;1.25;;;;;;;;;;5078519;28;20172;-47
2022/04/30 15:12:19;;;;;;;3.80;1.13;;;;;;;;;;5092610;28;20038;-49
2022/04/30 15:14:45;;;;;;;4.10;1.25;;;;;;;;;;5088151;28;20035;-52
2022/04/30 15:17:12;;;;;;;4.80;1.40;;;;;;;;;;5040065;28;20033;-50
2022/04/30 15:19:39;;;;;;;3.85;1.10;;;;;;;;;;5036003;28;20099;-47
2022/04/30 15:22:05;;;;;;;2.05;1.30;;;;;;;;;;5055472;28;20052;-48
2022/04/30 15:24:31;;;;;;;3.53;1.50;;;;;;;;;;5092202;28;20024;-52
2022/04/30 15:26:58;;;;;;;2.90;1.30;;;;;;;;;;5092080;28;20012;-52